sensor_id;sensor_type;location;lat;lon;timestamp;temperature;humidity
30174;DHT22;16985;50.814;8.530;2023-07-08T00:00:19;17.40;81.40
30174;DHT22;16985;50.814;8.530;2023-07-08T00:02:47;17.40;81.80
30174;DHT22;16985;50.814;8.530;2023-07-08T00:05:15;17.40;82.30
30174;DHT22;16985;50.814;8.530;2023-07-08T00:07:42;17.30;82.20
30174;DHT22;16985;50.814;8.530;2023-07-08T00:10:17;17.20;82.40
30174;DHT22;16985;50.814;8.530;2023-07-08T00:12:49;17.20;82.60
30174;DHT22;16985;50.814;8.530;2023-07-08T00:15:21;17.10;82.60
30174;DHT22;16985;50.814;8.530;2023-07-08T00:17:48;17.10;83.00
30174;DHT22;16985;50.814;8.530;2023-07-08T00:20:20;17.00;83.00
30174;DHT22;16985;50.814;8.530;2023-07-08T00:22:49;17.00;83.30
30174;DHT22;16985;50.814;8.530;2023-07-08T00:25:17;17.00;83.30
30174;DHT22;16985;50.814;8.530;2023-07-08T00:27:45;17.00;84.00
30174;DHT22;16985;50.814;8.530;2023-07-08T00:30:25;16.90;84.20
30174;DHT22;16985;50.814;8.530;2023-07-08T00:32:53;16.90;84.00
30174;DHT22;16985;50.814;8.530;2023-07-08T00:35:30;16.90;84.50
30174;DHT22;16985;50.814;8.530;2023-07-08T00:37:59;16.80;84.60
30174;DHT22;16985;50.814;8.530;2023-07-08T00:40:32;16.80;84.60
30174;DHT22;16985;50.814;8.530;2023-07-08T00:43:01;16.70;84.80
30174;DHT22;16985;50.814;8.530;2023-07-08T00:45:40;16.70;85.20
30174;DHT22;16985;50.814;8.530;2023-07-08T00:48:31;16.60;85.30
30174;DHT22;16985;50.814;8.530;2023-07-08T00:50:59;16.60;85.90
30174;DHT22;16985;50.814;8.530;2023-07-08T00:53:35;16.50;86.00
30174;DHT22;16985;50.814;8.530;2023-07-08T00:56:35;16.50;86.20
30174;DHT22;16985;50.814;8.530;2023-07-08T00:59:11;16.50;86.40
30174;DHT22;16985;50.814;8.530;2023-07-08T01:01:41;16.40;86.80
30174;DHT22;16985;50.814;8.530;2023-07-08T01:04:15;16.40;86.80
30174;DHT22;16985;50.814;8.530;2023-07-08T01:06:53;16.40;87.50
30174;DHT22;16985;50.814;8.530;2023-07-08T01:09:31;16.40;87.60
30174;DHT22;16985;50.814;8.530;2023-07-08T01:12:11;16.30;88.10
30174;DHT22;16985;50.814;8.530;2023-07-08T01:14:41;16.20;88.20
30174;DHT22;16985;50.814;8.530;2023-07-08T01:17:08;16.30;88.30
30174;DHT22;16985;50.814;8.530;2023-07-08T01:19:40;16.30;89.30
30174;DHT22;16985;50.814;8.530;2023-07-08T01:22:07;16.20;88.60
30174;DHT22;16985;50.814;8.530;2023-07-08T01:24:36;16.10;88.50
30174;DHT22;16985;50.814;8.530;2023-07-08T01:27:07;16.10;88.90
30174;DHT22;16985;50.814;8.530;2023-07-08T01:29:35;16.10;88.90
30174;DHT22;16985;50.814;8.530;2023-07-08T01:32:01;16.00;89.50
30174;DHT22;16985;50.814;8.530;2023-07-08T01:34:32;16.00;90.00
30174;DHT22;16985;50.814;8.530;2023-07-08T01:36:59;16.00;90.00
30174;DHT22;16985;50.814;8.530;2023-07-08T01:39:29;16.00;90.00
30174;DHT22;16985;50.814;8.530;2023-07-08T01:41:56;16.00;90.10
30174;DHT22;16985;50.814;8.530;2023-07-08T01:44:32;15.90;90.00
30174;DHT22;16985;50.814;8.530;2023-07-08T01:47:16;15.90;90.20
30174;DHT22;16985;50.814;8.530;2023-07-08T01:49:46;15.90;90.40
30174;DHT22;16985;50.814;8.530;2023-07-08T01:52:13;15.80;90.40
30174;DHT22;16985;50.814;8.530;2023-07-08T01:54:40;15.80;90.70
30174;DHT22;16985;50.814;8.530;2023-07-08T01:57:06;15.80;90.70
30174;DHT22;16985;50.814;8.530;2023-07-08T01:59:32;15.70;90.90
30174;DHT22;16985;50.814;8.530;2023-07-08T02:01:58;15.70;90.90
30174;DHT22;16985;50.814;8.530;2023-07-08T02:04:25;15.70;91.10
30174;DHT22;16985;50.814;8.530;2023-07-08T02:06:56;15.70;91.20
30174;DHT22;16985;50.814;8.530;2023-07-08T02:09:24;15.70;91.30
30174;DHT22;16985;50.814;8.530;2023-07-08T02:12:05;15.60;91.60
30174;DHT22;16985;50.814;8.530;2023-07-08T02:14:31;15.60;91.50
30174;DHT22;16985;50.814;8.530;2023-07-08T02:16:57;15.50;91.60
30174;DHT22;16985;50.814;8.530;2023-07-08T02:19:33;15.50;91.60
30174;DHT22;16985;50.814;8.530;2023-07-08T02:21:58;15.40;91.70
30174;DHT22;16985;50.814;8.530;2023-07-08T02:24:25;15.40;91.80
30174;DHT22;16985;50.814;8.530;2023-07-08T02:26:51;15.40;92.10
30174;DHT22;16985;50.814;8.530;2023-07-08T02:29:17;15.40;92.20
30174;DHT22;16985;50.814;8.530;2023-07-08T02:31:43;15.30;92.30
30174;DHT22;16985;50.814;8.530;2023-07-08T02:34:08;15.30;92.50
30174;DHT22;16985;50.814;8.530;2023-07-08T02:36:35;15.30;92.50
30174;DHT22;16985;50.814;8.530;2023-07-08T02:39:02;15.20;92.60
30174;DHT22;16985;50.814;8.530;2023-07-08T02:41:28;15.20;92.80
30174;DHT22;16985;50.814;8.530;2023-07-08T02:43:54;15.20;92.90
30174;DHT22;16985;50.814;8.530;2023-07-08T02:46:19;15.20;93.00
30174;DHT22;16985;50.814;8.530;2023-07-08T02:48:45;15.20;93.00
30174;DHT22;16985;50.814;8.530;2023-07-08T02:51:11;15.20;93.10
30174;DHT22;16985;50.814;8.530;2023-07-08T02:53:37;15.10;93.10
30174;DHT22;16985;50.814;8.530;2023-07-08T02:56:03;15.10;93.00
30174;DHT22;16985;50.814;8.530;2023-07-08T02:58:29;15.00;93.50
30174;DHT22;16985;50.814;8.530;2023-07-08T03:00:56;15.00;93.30
30174;DHT22;16985;50.814;8.530;2023-07-08T03:03:26;14.90;93.80
30174;DHT22;16985;50.814;8.530;2023-07-08T03:06:00;15.00;93.70
30174;DHT22;16985;50.814;8.530;2023-07-08T03:08:29;15.00;94.00
30174;DHT22;16985;50.814;8.530;2023-07-08T03:10:58;14.90;94.10
30174;DHT22;16985;50.814;8.530;2023-07-08T03:13:40;14.90;94.00
30174;DHT22;16985;50.814;8.530;2023-07-08T03:16:07;15.00;94.20
30174;DHT22;16985;50.814;8.530;2023-07-08T03:18:39;14.90;94.10
30174;DHT22;16985;50.814;8.530;2023-07-08T03:21:14;14.90;94.40
30174;DHT22;16985;50.814;8.530;2023-07-08T03:23:41;14.90;94.60
30174;DHT22;16985;50.814;8.530;2023-07-08T03:26:20;14.90;94.70
30174;DHT22;16985;50.814;8.530;2023-07-08T03:28:48;14.90;94.70
30174;DHT22;16985;50.814;8.530;2023-07-08T03:31:14;14.80;94.90
30174;DHT22;16985;50.814;8.530;2023-07-08T03:33:40;14.90;94.90
30174;DHT22;16985;50.814;8.530;2023-07-08T03:36:13;14.80;95.10
30174;DHT22;16985;50.814;8.530;2023-07-08T03:38:52;14.90;95.40
30174;DHT22;16985;50.814;8.530;2023-07-08T03:41:21;14.90;95.30
30174;DHT22;16985;50.814;8.530;2023-07-08T03:44:03;14.90;95.80
30174;DHT22;16985;50.814;8.530;2023-07-08T03:46:28;14.90;96.10
30174;DHT22;16985;50.814;8.530;2023-07-08T03:48:54;14.90;96.10
30174;DHT22;16985;50.814;8.530;2023-07-08T03:51:27;14.90;96.50
30174;DHT22;16985;50.814;8.530;2023-07-08T03:53:55;14.90;96.70
30174;DHT22;16985;50.814;8.530;2023-07-08T03:56:22;14.80;97.10
30174;DHT22;16985;50.814;8.530;2023-07-08T03:58:48;14.90;97.20
30174;DHT22;16985;50.814;8.530;2023-07-08T04:01:20;15.00;96.80
30174;DHT22;16985;50.814;8.530;2023-07-08T04:03:53;14.90;97.20
30174;DHT22;16985;50.814;8.530;2023-07-08T04:06:22;14.90;97.30
30174;DHT22;16985;50.814;8.530;2023-07-08T04:08:48;15.00;97.70
30174;DHT22;16985;50.814;8.530;2023-07-08T04:11:20;14.90;96.80
30174;DHT22;16985;50.814;8.530;2023-07-08T04:13:48;15.00;96.20
30174;DHT22;16985;50.814;8.530;2023-07-08T04:16:25;15.00;96.40
30174;DHT22;16985;50.814;8.530;2023-07-08T04:18:54;15.10;96.10
30174;DHT22;16985;50.814;8.530;2023-07-08T04:21:36;15.10;96.00
30174;DHT22;16985;50.814;8.530;2023-07-08T04:24:01;15.10;96.50
30174;DHT22;16985;50.814;8.530;2023-07-08T04:26:27;15.10;96.20
30174;DHT22;16985;50.814;8.530;2023-07-08T04:28:53;15.10;96.90
30174;DHT22;16985;50.814;8.530;2023-07-08T04:31:19;15.10;96.90
30174;DHT22;16985;50.814;8.530;2023-07-08T04:33:44;15.10;97.30
30174;DHT22;16985;50.814;8.530;2023-07-08T04:36:13;15.10;98.20
30174;DHT22;16985;50.814;8.530;2023-07-08T04:38:39;15.10;98.40
30174;DHT22;16985;50.814;8.530;2023-07-08T04:41:07;15.20;97.90
30174;DHT22;16985;50.814;8.530;2023-07-08T04:43:33;15.10;99.30
30174;DHT22;16985;50.814;8.530;2023-07-08T04:45:59;15.00;99.50
30174;DHT22;16985;50.814;8.530;2023-07-08T04:48:28;15.10;99.40
30174;DHT22;16985;50.814;8.530;2023-07-08T04:50:54;15.10;99.70
30174;DHT22;16985;50.814;8.530;2023-07-08T04:53:20;15.10;99.90
30174;DHT22;16985;50.814;8.530;2023-07-08T04:55:52;15.10;99.90
30174;DHT22;16985;50.814;8.530;2023-07-08T04:58:19;15.10;99.70
30174;DHT22;16985;50.814;8.530;2023-07-08T05:00:45;15.10;99.70
30174;DHT22;16985;50.814;8.530;2023-07-08T05:03:12;15.10;98.90
30174;DHT22;16985;50.814;8.530;2023-07-08T05:05:37;15.10;99.50
30174;DHT22;16985;50.814;8.530;2023-07-08T05:08:03;15.10;99.90
30174;DHT22;16985;50.814;8.530;2023-07-08T05:10:29;15.10;98.60
30174;DHT22;16985;50.814;8.530;2023-07-08T05:12:55;15.10;98.70
30174;DHT22;16985;50.814;8.530;2023-07-08T05:15:21;15.20;98.50
30174;DHT22;16985;50.814;8.530;2023-07-08T05:17:47;15.10;98.20
30174;DHT22;16985;50.814;8.530;2023-07-08T05:20:14;15.10;98.00
30174;DHT22;16985;50.814;8.530;2023-07-08T05:22:40;15.10;98.20
30174;DHT22;16985;50.814;8.530;2023-07-08T05:25:08;15.20;98.30
30174;DHT22;16985;50.814;8.530;2023-07-08T05:27:34;15.20;98.30
30174;DHT22;16985;50.814;8.530;2023-07-08T05:30:06;15.20;98.10
30174;DHT22;16985;50.814;8.530;2023-07-08T05:32:35;15.30;98.00
30174;DHT22;16985;50.814;8.530;2023-07-08T05:35:01;15.30;98.30
30174;DHT22;16985;50.814;8.530;2023-07-08T05:37:26;15.30;98.80
30174;DHT22;16985;50.814;8.530;2023-07-08T05:39:55;15.40;99.20
30174;DHT22;16985;50.814;8.530;2023-07-08T05:42:21;15.40;99.60
30174;DHT22;16985;50.814;8.530;2023-07-08T05:44:48;15.50;99.90
30174;DHT22;16985;50.814;8.530;2023-07-08T05:47:14;15.50;99.90
30174;DHT22;16985;50.814;8.530;2023-07-08T05:49:41;15.60;99.90
30174;DHT22;16985;50.814;8.530;2023-07-08T05:52:07;15.60;99.90
30174;DHT22;16985;50.814;8.530;2023-07-08T05:54:37;15.60;99.90
30174;DHT22;16985;50.814;8.530;2023-07-08T05:57:05;15.70;99.90
30174;DHT22;16985;50.814;8.530;2023-07-08T05:59:31;15.70;99.90
30174;DHT22;16985;50.814;8.530;2023-07-08T06:01:57;15.70;99.90
30174;DHT22;16985;50.814;8.530;2023-07-08T06:04:23;15.80;99.90
30174;DHT22;16985;50.814;8.530;2023-07-08T06:06:49;15.90;99.90
30174;DHT22;16985;50.814;8.530;2023-07-08T06:09:15;15.90;99.90
30174;DHT22;16985;50.814;8.530;2023-07-08T06:11:40;15.90;99.90
30174;DHT22;16985;50.814;8.530;2023-07-08T06:14:06;16.00;99.90
30174;DHT22;16985;50.814;8.530;2023-07-08T06:16:32;16.20;99.90
30174;DHT22;16985;50.814;8.530;2023-07-08T06:19:00;16.20;99.90
30174;DHT22;16985;50.814;8.530;2023-07-08T06:21:26;16.20;99.90
30174;DHT22;16985;50.814;8.530;2023-07-08T06:23:52;16.30;99.90
30174;DHT22;16985;50.814;8.530;2023-07-08T06:26:18;16.40;99.90
30174;DHT22;16985;50.814;8.530;2023-07-08T06:28:44;16.50;99.90
30174;DHT22;16985;50.814;8.530;2023-07-08T06:31:09;16.50;99.90
30174;DHT22;16985;50.814;8.530;2023-07-08T06:33:35;16.60;99.90
30174;DHT22;16985;50.814;8.530;2023-07-08T06:36:01;16.70;99.90
30174;DHT22;16985;50.814;8.530;2023-07-08T06:38:27;16.80;99.90
30174;DHT22;16985;50.814;8.530;2023-07-08T06:40:53;16.90;99.90
30174;DHT22;16985;50.814;8.530;2023-07-08T06:43:19;17.00;99.90
30174;DHT22;16985;50.814;8.530;2023-07-08T06:45:50;17.10;99.90
30174;DHT22;16985;50.814;8.530;2023-07-08T06:48:16;17.10;99.90
30174;DHT22;16985;50.814;8.530;2023-07-08T06:50:45;17.30;99.90
30174;DHT22;16985;50.814;8.530;2023-07-08T06:53:11;17.40;99.90
30174;DHT22;16985;50.814;8.530;2023-07-08T06:55:37;17.50;99.90
30174;DHT22;16985;50.814;8.530;2023-07-08T06:58:03;17.60;99.90
30174;DHT22;16985;50.814;8.530;2023-07-08T07:00:28;17.80;99.90
30174;DHT22;16985;50.814;8.530;2023-07-08T07:02:54;17.90;99.90
30174;DHT22;16985;50.814;8.530;2023-07-08T07:05:20;18.10;99.90
30174;DHT22;16985;50.814;8.530;2023-07-08T07:07:46;18.10;99.90
30174;DHT22;16985;50.814;8.530;2023-07-08T07:10:12;18.20;99.90
30174;DHT22;16985;50.814;8.530;2023-07-08T07:12:37;18.40;99.90
30174;DHT22;16985;50.814;8.530;2023-07-08T07:15:04;18.50;99.40
30174;DHT22;16985;50.814;8.530;2023-07-08T07:17:31;18.60;97.90
30174;DHT22;16985;50.814;8.530;2023-07-08T07:19:56;18.70;96.20
30174;DHT22;16985;50.814;8.530;2023-07-08T07:22:23;18.90;95.50
30174;DHT22;16985;50.814;8.530;2023-07-08T07:24:48;19.00;94.70
30174;DHT22;16985;50.814;8.530;2023-07-08T07:27:14;19.10;93.10
30174;DHT22;16985;50.814;8.530;2023-07-08T07:29:43;19.20;92.60
30174;DHT22;16985;50.814;8.530;2023-07-08T07:32:11;19.30;92.60
30174;DHT22;16985;50.814;8.530;2023-07-08T07:34:38;19.40;92.60
30174;DHT22;16985;50.814;8.530;2023-07-08T07:37:05;19.50;92.20
30174;DHT22;16985;50.814;8.530;2023-07-08T07:39:31;19.60;91.70
30174;DHT22;16985;50.814;8.530;2023-07-08T07:41:57;19.60;91.40
30174;DHT22;16985;50.814;8.530;2023-07-08T07:44:23;19.60;91.40
30174;DHT22;16985;50.814;8.530;2023-07-08T07:46:51;19.80;91.00
30174;DHT22;16985;50.814;8.530;2023-07-08T07:49:18;20.00;90.70
30174;DHT22;16985;50.814;8.530;2023-07-08T07:51:44;20.10;90.60
30174;DHT22;16985;50.814;8.530;2023-07-08T07:54:10;20.20;90.50
30174;DHT22;16985;50.814;8.530;2023-07-08T07:56:35;20.30;90.00
30174;DHT22;16985;50.814;8.530;2023-07-08T07:59:02;20.50;89.80
30174;DHT22;16985;50.814;8.530;2023-07-08T08:01:28;20.60;88.80
30174;DHT22;16985;50.814;8.530;2023-07-08T08:03:54;20.80;87.80
30174;DHT22;16985;50.814;8.530;2023-07-08T08:06:34;20.90;86.20
30174;DHT22;16985;50.814;8.530;2023-07-08T08:09:00;21.00;85.80
30174;DHT22;16985;50.814;8.530;2023-07-08T08:11:26;21.20;85.00
30174;DHT22;16985;50.814;8.530;2023-07-08T08:13:53;21.30;84.40
30174;DHT22;16985;50.814;8.530;2023-07-08T08:16:20;21.50;81.80
30174;DHT22;16985;50.814;8.530;2023-07-08T08:18:46;21.70;78.60
30174;DHT22;16985;50.814;8.530;2023-07-08T08:21:12;21.80;76.40
30174;DHT22;16985;50.814;8.530;2023-07-08T08:23:38;22.00;75.10
30174;DHT22;16985;50.814;8.530;2023-07-08T08:26:19;22.20;73.40
30174;DHT22;16985;50.814;8.530;2023-07-08T08:28:45;22.40;72.70
30174;DHT22;16985;50.814;8.530;2023-07-08T08:31:11;22.50;72.10
30174;DHT22;16985;50.814;8.530;2023-07-08T08:33:37;22.70;71.50
30174;DHT22;16985;50.814;8.530;2023-07-08T08:36:02;22.80;70.10
30174;DHT22;16985;50.814;8.530;2023-07-08T08:38:28;23.00;69.40
30174;DHT22;16985;50.814;8.530;2023-07-08T08:40:54;23.10;68.60
30174;DHT22;16985;50.814;8.530;2023-07-08T08:43:23;23.30;66.90
30174;DHT22;16985;50.814;8.530;2023-07-08T08:46:15;23.40;66.40
30174;DHT22;16985;50.814;8.530;2023-07-08T08:49:26;23.60;66.40
30174;DHT22;16985;50.814;8.530;2023-07-08T08:51:55;23.70;65.50
30174;DHT22;16985;50.814;8.530;2023-07-08T08:54:23;23.80;64.50
30174;DHT22;16985;50.814;8.530;2023-07-08T08:57:14;24.00;64.00
30174;DHT22;16985;50.814;8.530;2023-07-08T08:59:57;24.10;62.30
30174;DHT22;16985;50.814;8.530;2023-07-08T09:02:54;24.20;62.10
30174;DHT22;16985;50.814;8.530;2023-07-08T09:05:25;24.40;62.10
30174;DHT22;16985;50.814;8.530;2023-07-08T09:10:49;24.60;60.40
30174;DHT22;16985;50.814;8.530;2023-07-08T09:13:30;24.80;59.20
30174;DHT22;16985;50.814;8.530;2023-07-08T09:18:41;25.00;59.70
30174;DHT22;16985;50.814;8.530;2023-07-08T09:21:28;25.20;59.60
30174;DHT22;16985;50.814;8.530;2023-07-08T09:24:01;25.30;59.20
30174;DHT22;16985;50.814;8.530;2023-07-08T09:26:30;25.40;59.40
30174;DHT22;16985;50.814;8.530;2023-07-08T09:28:57;25.50;59.40
30174;DHT22;16985;50.814;8.530;2023-07-08T09:31:30;25.60;59.00
30174;DHT22;16985;50.814;8.530;2023-07-08T09:36:42;25.90;57.00
30174;DHT22;16985;50.814;8.530;2023-07-08T09:39:15;26.00;57.20
30174;DHT22;16985;50.814;8.530;2023-07-08T09:41:44;26.10;57.20
30174;DHT22;16985;50.814;8.530;2023-07-08T09:46:44;26.20;57.40
30174;DHT22;16985;50.814;8.530;2023-07-08T09:49:27;26.30;57.60
30174;DHT22;16985;50.814;8.530;2023-07-08T09:51:54;26.30;57.60
30174;DHT22;16985;50.814;8.530;2023-07-08T09:54:22;26.40;58.00
30174;DHT22;16985;50.814;8.530;2023-07-08T09:57:21;26.50;57.80
30174;DHT22;16985;50.814;8.530;2023-07-08T10:00:00;26.70;56.80
30174;DHT22;16985;50.814;8.530;2023-07-08T10:05:23;27.10;55.80
30174;DHT22;16985;50.814;8.530;2023-07-08T10:07:55;27.40;55.00
30174;DHT22;16985;50.814;8.530;2023-07-08T10:10:36;27.50;54.80
30174;DHT22;16985;50.814;8.530;2023-07-08T10:18:41;27.90;54.00
30174;DHT22;16985;50.814;8.530;2023-07-08T10:21:22;28.00;53.10
30174;DHT22;16985;50.814;8.530;2023-07-08T10:33:45;28.80;52.10
30174;DHT22;16985;50.814;8.530;2023-07-08T10:39:48;29.00;52.00
30174;DHT22;16985;50.814;8.530;2023-07-08T10:45:45;29.30;51.20
30174;DHT22;16985;50.814;8.530;2023-07-08T10:48:46;29.50;50.20
30174;DHT22;16985;50.814;8.530;2023-07-08T10:54:25;29.80;50.60
30174;DHT22;16985;50.814;8.530;2023-07-08T10:57:22;29.90;50.20
30174;DHT22;16985;50.814;8.530;2023-07-08T11:08:26;30.50;49.20
30174;DHT22;16985;50.814;8.530;2023-07-08T11:11:40;30.70;47.80
30174;DHT22;16985;50.814;8.530;2023-07-08T11:14:13;30.80;48.30
30174;DHT22;16985;50.814;8.530;2023-07-08T11:16:52;30.90;48.20
30174;DHT22;16985;50.814;8.530;2023-07-08T11:19:48;31.10;47.00
30174;DHT22;16985;50.814;8.530;2023-07-08T11:22:20;31.20;46.10
30174;DHT22;16985;50.814;8.530;2023-07-08T11:24:49;31.30;45.70
30174;DHT22;16985;50.814;8.530;2023-07-08T11:27:27;31.40;45.60
30174;DHT22;16985;50.814;8.530;2023-07-08T11:32:33;31.60;45.10
30174;DHT22;16985;50.814;8.530;2023-07-08T11:35:03;31.60;45.00
30174;DHT22;16985;50.814;8.530;2023-07-08T11:37:31;31.80;44.40
30174;DHT22;16985;50.814;8.530;2023-07-08T11:40:17;31.80;43.90
30174;DHT22;16985;50.814;8.530;2023-07-08T11:42:49;31.90;44.00
30174;DHT22;16985;50.814;8.530;2023-07-08T11:45:30;32.00;44.70
30174;DHT22;16985;50.814;8.530;2023-07-08T11:50:44;32.20;44.70
30174;DHT22;16985;50.814;8.530;2023-07-08T11:53:31;32.30;44.50
30174;DHT22;16985;50.814;8.530;2023-07-08T11:58:57;32.40;44.30
30174;DHT22;16985;50.814;8.530;2023-07-08T12:01:32;32.60;44.20
30174;DHT22;16985;50.814;8.530;2023-07-08T12:09:27;32.90;41.80
30174;DHT22;16985;50.814;8.530;2023-07-08T12:12:02;33.00;42.40
30174;DHT22;16985;50.814;8.530;2023-07-08T12:14:31;33.00;42.20
30174;DHT22;16985;50.814;8.530;2023-07-08T12:16:57;33.10;41.90
30174;DHT22;16985;50.814;8.530;2023-07-08T12:19:25;33.10;40.40
30174;DHT22;16985;50.814;8.530;2023-07-08T12:21:54;33.20;40.60
30174;DHT22;16985;50.814;8.530;2023-07-08T12:24:21;33.20;40.90
30174;DHT22;16985;50.814;8.530;2023-07-08T12:26:52;33.30;41.60
30174;DHT22;16985;50.814;8.530;2023-07-08T12:29:18;33.40;41.80
30174;DHT22;16985;50.814;8.530;2023-07-08T12:31:44;33.50;41.50
30174;DHT22;16985;50.814;8.530;2023-07-08T12:34:20;33.50;41.60
30174;DHT22;16985;50.814;8.530;2023-07-08T12:36:47;34.20;42.10
30174;DHT22;16985;50.814;8.530;2023-07-08T12:39:16;33.70;40.90
30174;DHT22;16985;50.814;8.530;2023-07-08T12:44:21;33.80;40.00
30174;DHT22;16985;50.814;8.530;2023-07-08T12:52:46;33.90;40.20
30174;DHT22;16985;50.814;8.530;2023-07-08T12:55:13;33.90;40.70
30174;DHT22;16985;50.814;8.530;2023-07-08T12:57:40;33.90;40.30
30174;DHT22;16985;50.814;8.530;2023-07-08T13:00:17;34.00;40.70
30174;DHT22;16985;50.814;8.530;2023-07-08T13:03:15;34.00;40.70
30174;DHT22;16985;50.814;8.530;2023-07-08T13:05:43;34.10;41.20
30174;DHT22;16985;50.814;8.530;2023-07-08T13:08:12;34.00;41.20
30174;DHT22;16985;50.814;8.530;2023-07-08T13:10:39;34.00;40.70
30174;DHT22;16985;50.814;8.530;2023-07-08T13:13:06;33.90;40.70
30174;DHT22;16985;50.814;8.530;2023-07-08T13:15:38;33.90;41.30
30174;DHT22;16985;50.814;8.530;2023-07-08T13:18:16;33.90;42.30
30174;DHT22;16985;50.814;8.530;2023-07-08T13:20:50;33.90;41.50
30174;DHT22;16985;50.814;8.530;2023-07-08T13:23:18;33.90;41.60
30174;DHT22;16985;50.814;8.530;2023-07-08T13:25:48;34.00;42.30
30174;DHT22;16985;50.814;8.530;2023-07-08T13:28:24;34.10;42.20
30174;DHT22;16985;50.814;8.530;2023-07-08T13:30:56;34.20;41.40
30174;DHT22;16985;50.814;8.530;2023-07-08T13:33:28;34.30;41.10
30174;DHT22;16985;50.814;8.530;2023-07-08T13:35:57;34.30;39.40
30174;DHT22;16985;50.814;8.530;2023-07-08T13:43:39;34.90;37.90
30174;DHT22;16985;50.814;8.530;2023-07-08T13:46:24;34.00;40.00
30174;DHT22;16985;50.814;8.530;2023-07-08T13:48:53;34.80;38.30
30174;DHT22;16985;50.814;8.530;2023-07-08T13:51:22;34.80;37.70
30174;DHT22;16985;50.814;8.530;2023-07-08T13:54:00;34.90;37.70
30174;DHT22;16985;50.814;8.530;2023-07-08T13:59:08;34.70;37.70
30174;DHT22;16985;50.814;8.530;2023-07-08T14:01:39;34.80;37.30
30174;DHT22;16985;50.814;8.530;2023-07-08T14:04:06;34.90;37.70
30174;DHT22;16985;50.814;8.530;2023-07-08T14:08:53;34.90;37.70
30174;DHT22;16985;50.814;8.530;2023-07-08T14:11:20;35.00;38.40
30174;DHT22;16985;50.814;8.530;2023-07-08T14:13:46;35.00;38.90
30174;DHT22;16985;50.814;8.530;2023-07-08T14:16:27;35.10;38.50
30174;DHT22;16985;50.814;8.530;2023-07-08T14:18:56;35.10;38.30
30174;DHT22;16985;50.814;8.530;2023-07-08T14:21:23;35.00;38.10
30174;DHT22;16985;50.814;8.530;2023-07-08T14:23:49;35.00;38.40
30174;DHT22;16985;50.814;8.530;2023-07-08T14:26:15;35.10;38.20
30174;DHT22;16985;50.814;8.530;2023-07-08T14:28:41;35.10;38.30
30174;DHT22;16985;50.814;8.530;2023-07-08T14:31:12;35.00;37.60
30174;DHT22;16985;50.814;8.530;2023-07-08T14:41:02;35.00;37.60
30174;DHT22;16985;50.814;8.530;2023-07-08T14:43:29;35.00;38.10
30174;DHT22;16985;50.814;8.530;2023-07-08T14:45:58;34.90;38.70
30174;DHT22;16985;50.814;8.530;2023-07-08T14:48:30;34.80;38.40
30174;DHT22;16985;50.814;8.530;2023-07-08T14:50:57;34.60;38.40
30174;DHT22;16985;50.814;8.530;2023-07-08T14:53:24;34.40;39.10
30174;DHT22;16985;50.814;8.530;2023-07-08T14:55:51;34.40;39.60
30174;DHT22;16985;50.814;8.530;2023-07-08T14:58:28;34.40;39.50
30174;DHT22;16985;50.814;8.530;2023-07-08T15:00:57;34.30;40.00
30174;DHT22;16985;50.814;8.530;2023-07-08T15:03:24;34.40;40.20
30174;DHT22;16985;50.814;8.530;2023-07-08T15:05:50;34.40;40.50
30174;DHT22;16985;50.814;8.530;2023-07-08T15:08:16;34.40;40.00
30174;DHT22;16985;50.814;8.530;2023-07-08T15:23:10;34.50;37.90
30174;DHT22;16985;50.814;8.530;2023-07-08T15:25:36;34.50;38.60
30174;DHT22;16985;50.814;8.530;2023-07-08T15:28:04;34.40;38.70
30174;DHT22;16985;50.814;8.530;2023-07-08T15:30:31;34.30;38.90
30174;DHT22;16985;50.814;8.530;2023-07-08T15:32:57;34.30;39.00
30174;DHT22;16985;50.814;8.530;2023-07-08T15:37:55;34.30;39.40
30174;DHT22;16985;50.814;8.530;2023-07-08T15:40:23;34.30;40.00
30174;DHT22;16985;50.814;8.530;2023-07-08T15:42:51;34.30;40.10
30174;DHT22;16985;50.814;8.530;2023-07-08T15:45:32;34.10;40.70
30174;DHT22;16985;50.814;8.530;2023-07-08T15:47:59;34.10;41.40
30174;DHT22;16985;50.814;8.530;2023-07-08T15:50:27;34.10;40.90
30174;DHT22;16985;50.814;8.530;2023-07-08T15:52:53;34.10;40.10
30174;DHT22;16985;50.814;8.530;2023-07-08T15:55:28;34.00;40.20
30174;DHT22;16985;50.814;8.530;2023-07-08T16:00:52;33.90;41.00
30174;DHT22;16985;50.814;8.530;2023-07-08T16:03:23;33.80;41.10
30174;DHT22;16985;50.814;8.530;2023-07-08T16:05:51;33.80;41.80
30174;DHT22;16985;50.814;8.530;2023-07-08T16:08:18;33.70;40.90
30174;DHT22;16985;50.814;8.530;2023-07-08T16:10:51;33.60;41.40
30174;DHT22;16985;50.814;8.530;2023-07-08T16:13:32;33.60;41.00
30174;DHT22;16985;50.814;8.530;2023-07-08T16:16:00;33.40;40.30
30174;DHT22;16985;50.814;8.530;2023-07-08T16:18:26;33.30;40.80
30174;DHT22;16985;50.814;8.530;2023-07-08T16:23:18;33.10;40.30
30174;DHT22;16985;50.814;8.530;2023-07-08T16:25:46;33.10;40.90
30174;DHT22;16985;50.814;8.530;2023-07-08T16:28:43;33.00;40.90
30174;DHT22;16985;50.814;8.530;2023-07-08T16:31:17;32.80;41.40
30174;DHT22;16985;50.814;8.530;2023-07-08T16:33:45;32.70;42.00
30174;DHT22;16985;50.814;8.530;2023-07-08T16:36:12;32.70;42.60
30174;DHT22;16985;50.814;8.530;2023-07-08T16:38:44;32.60;43.00
30174;DHT22;16985;50.814;8.530;2023-07-08T16:41:19;32.40;44.60
30174;DHT22;16985;50.814;8.530;2023-07-08T16:43:46;32.40;43.40
30174;DHT22;16985;50.814;8.530;2023-07-08T16:46:15;32.30;43.70
30174;DHT22;16985;50.814;8.530;2023-07-08T16:48:42;32.20;42.90
30174;DHT22;16985;50.814;8.530;2023-07-08T16:51:16;32.20;42.50
30174;DHT22;16985;50.814;8.530;2023-07-08T16:53:45;32.10;42.60
30174;DHT22;16985;50.814;8.530;2023-07-08T16:56:19;32.00;43.10
30174;DHT22;16985;50.814;8.530;2023-07-08T16:58:46;31.80;42.80
30174;DHT22;16985;50.814;8.530;2023-07-08T17:01:30;31.80;43.60
30174;DHT22;16985;50.814;8.530;2023-07-08T17:03:57;31.70;44.00
30174;DHT22;16985;50.814;8.530;2023-07-08T17:06:23;31.60;44.00
30174;DHT22;16985;50.814;8.530;2023-07-08T17:08:49;31.50;43.70
30174;DHT22;16985;50.814;8.530;2023-07-08T17:11:16;31.40;43.80
30174;DHT22;16985;50.814;8.530;2023-07-08T17:13:43;31.40;43.80
30174;DHT22;16985;50.814;8.530;2023-07-08T17:16:16;31.40;44.30
30174;DHT22;16985;50.814;8.530;2023-07-08T17:18:44;31.30;45.20
30174;DHT22;16985;50.814;8.530;2023-07-08T17:21:15;31.30;45.60
30174;DHT22;16985;50.814;8.530;2023-07-08T17:23:41;31.20;45.90
30174;DHT22;16985;50.814;8.530;2023-07-08T17:26:07;31.10;45.60
30174;DHT22;16985;50.814;8.530;2023-07-08T17:28:34;31.00;45.40
30174;DHT22;16985;50.814;8.530;2023-07-08T17:31:00;31.00;45.60
30174;DHT22;16985;50.814;8.530;2023-07-08T17:33:27;30.90;45.60
30174;DHT22;16985;50.814;8.530;2023-07-08T17:35:53;30.90;45.30